Benton, KY

11:26 AM CDT on April 28, 2015 (GMT -0500)
Jason's House | | Change Station
CLOSE
Current Station
Personal Weather Station
Location: Benton, KY
Elevation: 456 ft
Nearby Weather Stations

Elev 456 ft 36.85 °N, 88.35 °W | Updated 6 seconds ago

Clear
Clear
58.8 °F
Feels Like 58.8 °F
N
6.0
Wind Variable Wind from ENE
Gusts 14.0 mph

Today
High -- | Low -- °F
--% Chance of Precip.
Yesterday
High -- | Low -- °F
Precip. -- in
6:02 AM 7:39 PM
Waxing Gibbous, 74% visible
Pressure 30.04 in
Visibility 10.0 miles
Clouds Clear
Dew Point 44 °F
Humidity 58%
Rainfall 0.00 in
Snow Depth Not available.
UV 9 out of 12
Pollen 9.60 out of 12
Air Quality Not available.
Flu Activity Local Activity
METAR KCEY 281615Z AUTO 06014G20KT 10SM CLR 14/04 A3004 RMK AO1

More Conditions Fewer Conditions

Pressure 30.04 in
Visibility 10.0 miles
Clouds Clear
Dew Point 44 °F
Humidity 58%
Rainfall 0.00 in
Snow Depth Not available.
UV 9 out of 12
Pollen 9.60 out of 12
Air Quality Not available.
Flu Activity Local Activity
METAR KCEY 281615Z AUTO 06014G20KT 10SM CLR 14/04 A3004 RMK AO1

More Conditions Fewer Conditions

10-Day Weather Forecast

Almanac

Astronomy

Apr. 28, 2015 Rise Set
Actual Time
Civil Twilight
Nautical Twilight
Astronomical Twilight
Moon
Length of Visible Light
Length of Day
Tomorrow will be .
, % of the Moon is Illuminated

Today's Extremes

State Highs State Lows

Community

WunderPhotos

Upload Photos

1,817,691 photos uploaded!

WunderBlogs® & News

Nearby

Air Quality

  Air Quality AQ Index Pollutant
Not available.

Snow Depth

Station Depth Elevation

Earthquake Activity

City Distance Mag. Time & Date
Minimum magnitude displayed is 2.5.

Coastal Water Temperatures

Place Temperature

Stations

Nearby Weather Stations

Station Location Temp. Windchill Dew Point Humidity Wind Precip. Elev Updated Type